sensor_id;sensor_type;location;lat;lon;timestamp;P1;durP1;ratioP1;P2;durP2;ratioP2
39970;SDS011;35425;51.142;17.178;2023-03-23T00:00:43;6.80;;;5.70;;
39970;SDS011;35425;51.142;17.178;2023-03-23T00:03:09;7.13;;;5.68;;
39970;SDS011;35425;51.142;17.178;2023-03-23T00:05:34;6.15;;;5.53;;
39970;SDS011;35425;51.142;17.178;2023-03-23T00:08:02;7.38;;;6.07;;
39970;SDS011;35425;51.142;17.178;2023-03-23T00:10:28;6.65;;;5.88;;
39970;SDS011;35425;51.142;17.178;2023-03-23T00:12:58;6.70;;;5.70;;
39970;SDS011;35425;51.142;17.178;2023-03-23T00:15:28;7.05;;;5.55;;
39970;SDS011;35425;51.142;17.178;2023-03-23T00:18:01;6.85;;;6.15;;
39970;SDS011;35425;51.142;17.178;2023-03-23T00:20:30;7.18;;;6.07;;
39970;SDS011;35425;51.142;17.178;2023-03-23T00:23:05;5.90;;;5.30;;
39970;SDS011;35425;51.142;17.178;2023-03-23T00:25:32;6.85;;;5.75;;
39970;SDS011;35425;51.142;17.178;2023-03-23T00:27:58;5.78;;;5.18;;
39970;SDS011;35425;51.142;17.178;2023-03-23T00:30:24;6.60;;;5.63;;
39970;SDS011;35425;51.142;17.178;2023-03-23T00:32:49;6.28;;;5.60;;
39970;SDS011;35425;51.142;17.178;2023-03-23T00:35:16;6.47;;;5.53;;
39970;SDS011;35425;51.142;17.178;2023-03-23T00:37:42;6.18;;;5.57;;
39970;SDS011;35425;51.142;17.178;2023-03-23T00:40:09;6.50;;;5.72;;
39970;SDS011;35425;51.142;17.178;2023-03-23T00:42:35;6.03;;;5.43;;
39970;SDS011;35425;51.142;17.178;2023-03-23T00:45:02;6.40;;;5.45;;
39970;SDS011;35425;51.142;17.178;2023-03-23T00:47:29;6.97;;;5.63;;
39970;SDS011;35425;51.142;17.178;2023-03-23T00:49:55;6.20;;;5.50;;
39970;SDS011;35425;51.142;17.178;2023-03-23T00:52:21;6.95;;;5.43;;
39970;SDS011;35425;51.142;17.178;2023-03-23T00:54:47;6.63;;;5.50;;
39970;SDS011;35425;51.142;17.178;2023-03-23T00:57:13;6.18;;;5.57;;
39970;SDS011;35425;51.142;17.178;2023-03-23T00:59:38;6.40;;;5.28;;
39970;SDS011;35425;51.142;17.178;2023-03-23T01:02:04;7.15;;;5.68;;
39970;SDS011;35425;51.142;17.178;2023-03-23T01:04:32;6.35;;;5.75;;
39970;SDS011;35425;51.142;17.178;2023-03-23T01:07:02;5.80;;;5.20;;
39970;SDS011;35425;51.142;17.178;2023-03-23T01:09:27;6.15;;;5.35;;
39970;SDS011;35425;51.142;17.178;2023-03-23T01:11:53;5.93;;;4.70;;
39970;SDS011;35425;51.142;17.178;2023-03-23T01:14:20;5.68;;;5.13;;
39970;SDS011;35425;51.142;17.178;2023-03-23T01:16:47;5.63;;;4.53;;
39970;SDS011;35425;51.142;17.178;2023-03-23T01:19:12;5.97;;;5.05;;
39970;SDS011;35425;51.142;17.178;2023-03-23T01:21:39;5.47;;;4.97;;
39970;SDS011;35425;51.142;17.178;2023-03-23T01:24:04;5.63;;;4.93;;
39970;SDS011;35425;51.142;17.178;2023-03-23T01:26:31;5.85;;;4.78;;
39970;SDS011;35425;51.142;17.178;2023-03-23T01:28:57;6.05;;;5.18;;
39970;SDS011;35425;51.142;17.178;2023-03-23T01:31:23;5.60;;;4.82;;
39970;SDS011;35425;51.142;17.178;2023-03-23T01:33:49;5.18;;;4.65;;
39970;SDS011;35425;51.142;17.178;2023-03-23T01:36:20;5.28;;;4.78;;
39970;SDS011;35425;51.142;17.178;2023-03-23T01:38:46;5.10;;;4.60;;
39970;SDS011;35425;51.142;17.178;2023-03-23T01:41:13;5.18;;;4.68;;
39970;SDS011;35425;51.142;17.178;2023-03-23T01:43:58;6.20;;;4.85;;
39970;SDS011;35425;51.142;17.178;2023-03-23T01:46:30;5.60;;;4.85;;
39970;SDS011;35425;51.142;17.178;2023-03-23T01:48:57;4.72;;;4.22;;
39970;SDS011;35425;51.142;17.178;2023-03-23T01:51:23;5.13;;;4.63;;
39970;SDS011;35425;51.142;17.178;2023-03-23T01:53:54;6.03;;;4.88;;
39970;SDS011;35425;51.142;17.178;2023-03-23T01:56:21;5.97;;;4.72;;
39970;SDS011;35425;51.142;17.178;2023-03-23T01:58:50;5.63;;;5.03;;
39970;SDS011;35425;51.142;17.178;2023-03-23T02:01:16;4.80;;;4.28;;
39970;SDS011;35425;51.142;17.178;2023-03-23T02:03:42;5.00;;;4.50;;
39970;SDS011;35425;51.142;17.178;2023-03-23T02:06:10;4.80;;;4.30;;
39970;SDS011;35425;51.142;17.178;2023-03-23T02:08:35;4.70;;;4.30;;
39970;SDS011;35425;51.142;17.178;2023-03-23T02:11:14;5.03;;;4.25;;
39970;SDS011;35425;51.142;17.178;2023-03-23T02:13:41;5.35;;;4.78;;
39970;SDS011;35425;51.142;17.178;2023-03-23T02:23:52;4.30;;;3.67;;
39970;SDS011;35425;51.142;17.178;2023-03-23T02:32:09;5.35;;;4.55;;
39970;SDS011;35425;51.142;17.178;2023-03-23T02:34:41;4.07;;;3.67;;
39970;SDS011;35425;51.142;17.178;2023-03-23T02:37:11;4.40;;;4.00;;
39970;SDS011;35425;51.142;17.178;2023-03-23T02:39:49;4.47;;;4.00;;
39970;SDS011;35425;51.142;17.178;2023-03-23T02:42:17;4.82;;;4.07;;
39970;SDS011;35425;51.142;17.178;2023-03-23T02:44:44;4.60;;;3.63;;
39970;SDS011;35425;51.142;17.178;2023-03-23T02:47:16;4.18;;;3.78;;
39970;SDS011;35425;51.142;17.178;2023-03-23T02:49:42;4.72;;;3.85;;
39970;SDS011;35425;51.142;17.178;2023-03-23T02:52:12;3.83;;;3.25;;
39970;SDS011;35425;51.142;17.178;2023-03-23T02:54:41;4.20;;;3.38;;
39970;SDS011;35425;51.142;17.178;2023-03-23T02:57:08;4.07;;;3.33;;
39970;SDS011;35425;51.142;17.178;2023-03-23T02:59:33;3.80;;;3.40;;
39970;SDS011;35425;51.142;17.178;2023-03-23T03:02:07;3.80;;;3.28;;
39970;SDS011;35425;51.142;17.178;2023-03-23T03:04:35;4.28;;;3.60;;
39970;SDS011;35425;51.142;17.178;2023-03-23T03:07:07;4.10;;;3.28;;
39970;SDS011;35425;51.142;17.178;2023-03-23T03:09:46;4.10;;;3.30;;
39970;SDS011;35425;51.142;17.178;2023-03-23T03:15:23;4.32;;;3.90;;
39970;SDS011;35425;51.142;17.178;2023-03-23T03:17:51;3.78;;;3.33;;
39970;SDS011;35425;51.142;17.178;2023-03-23T03:20:18;4.30;;;3.55;;
39970;SDS011;35425;51.142;17.178;2023-03-23T03:22:44;3.67;;;3.33;;
39970;SDS011;35425;51.142;17.178;2023-03-23T03:25:11;4.88;;;3.70;;
39970;SDS011;35425;51.142;17.178;2023-03-23T03:27:42;3.70;;;3.17;;
39970;SDS011;35425;51.142;17.178;2023-03-23T03:30:09;4.35;;;3.47;;
39970;SDS011;35425;51.142;17.178;2023-03-23T03:32:38;3.45;;;3.10;;
39970;SDS011;35425;51.142;17.178;2023-03-23T03:35:06;4.63;;;3.70;;
39970;SDS011;35425;51.142;17.178;2023-03-23T03:37:33;3.75;;;3.20;;
39970;SDS011;35425;51.142;17.178;2023-03-23T03:39:59;4.20;;;3.20;;
39970;SDS011;35425;51.142;17.178;2023-03-23T03:42:25;4.35;;;3.08;;
39970;SDS011;35425;51.142;17.178;2023-03-23T03:44:51;3.42;;;3.10;;
39970;SDS011;35425;51.142;17.178;2023-03-23T03:47:16;3.47;;;3.17;;
39970;SDS011;35425;51.142;17.178;2023-03-23T03:49:42;3.42;;;3.10;;
39970;SDS011;35425;51.142;17.178;2023-03-23T03:52:07;3.30;;;3.00;;
39970;SDS011;35425;51.142;17.178;2023-03-23T03:54:33;3.40;;;3.10;;
39970;SDS011;35425;51.142;17.178;2023-03-23T03:57:01;3.35;;;2.90;;
39970;SDS011;35425;51.142;17.178;2023-03-23T03:59:26;3.22;;;2.90;;
39970;SDS011;35425;51.142;17.178;2023-03-23T04:01:52;3.10;;;2.80;;
39970;SDS011;35425;51.142;17.178;2023-03-23T04:04:20;3.17;;;2.63;;
39970;SDS011;35425;51.142;17.178;2023-03-23T04:06:47;3.60;;;3.00;;
39970;SDS011;35425;51.142;17.178;2023-03-23T04:09:14;3.22;;;2.50;;
39970;SDS011;35425;51.142;17.178;2023-03-23T04:11:40;3.25;;;2.67;;
39970;SDS011;35425;51.142;17.178;2023-03-23T04:14:05;3.55;;;2.92;;
39970;SDS011;35425;51.142;17.178;2023-03-23T04:16:31;2.95;;;2.65;;
39970;SDS011;35425;51.142;17.178;2023-03-23T04:19:00;3.00;;;2.70;;
39970;SDS011;35425;51.142;17.178;2023-03-23T04:21:25;3.20;;;2.78;;
39970;SDS011;35425;51.142;17.178;2023-03-23T04:23:54;3.00;;;2.70;;
39970;SDS011;35425;51.142;17.178;2023-03-23T04:26:19;3.25;;;2.95;;
39970;SDS011;35425;51.142;17.178;2023-03-23T04:28:45;3.05;;;2.55;;
39970;SDS011;35425;51.142;17.178;2023-03-23T04:31:10;3.28;;;2.60;;
39970;SDS011;35425;51.142;17.178;2023-03-23T04:33:38;2.65;;;2.45;;
39970;SDS011;35425;51.142;17.178;2023-03-23T04:36:06;2.60;;;2.40;;
39970;SDS011;35425;51.142;17.178;2023-03-23T04:38:32;2.88;;;2.50;;
39970;SDS011;35425;51.142;17.178;2023-03-23T04:40:59;3.38;;;2.55;;
39970;SDS011;35425;51.142;17.178;2023-03-23T04:43:27;2.80;;;2.50;;
39970;SDS011;35425;51.142;17.178;2023-03-23T04:45:53;2.72;;;2.13;;
39970;SDS011;35425;51.142;17.178;2023-03-23T04:48:22;2.65;;;2.20;;
39970;SDS011;35425;51.142;17.178;2023-03-23T04:50:48;2.58;;;2.38;;
39970;SDS011;35425;51.142;17.178;2023-03-23T04:53:16;2.78;;;2.25;;
39970;SDS011;35425;51.142;17.178;2023-03-23T04:55:43;2.88;;;2.42;;
39970;SDS011;35425;51.142;17.178;2023-03-23T04:58:09;2.30;;;2.10;;
39970;SDS011;35425;51.142;17.178;2023-03-23T05:00:35;3.00;;;2.50;;
39970;SDS011;35425;51.142;17.178;2023-03-23T05:03:01;3.83;;;2.10;;
39970;SDS011;35425;51.142;17.178;2023-03-23T05:05:27;2.38;;;2.17;;
39970;SDS011;35425;51.142;17.178;2023-03-23T05:07:54;2.72;;;2.45;;
39970;SDS011;35425;51.142;17.178;2023-03-23T05:10:20;2.95;;;2.33;;
39970;SDS011;35425;51.142;17.178;2023-03-23T05:12:46;3.33;;;2.60;;
39970;SDS011;35425;51.142;17.178;2023-03-23T05:15:13;3.38;;;2.20;;
39970;SDS011;35425;51.142;17.178;2023-03-23T05:17:39;2.03;;;1.83;;
39970;SDS011;35425;51.142;17.178;2023-03-23T05:20:06;3.00;;;2.30;;
39970;SDS011;35425;51.142;17.178;2023-03-23T05:22:36;2.72;;;2.20;;
39970;SDS011;35425;51.142;17.178;2023-03-23T05:25:02;2.25;;;2.05;;
39970;SDS011;35425;51.142;17.178;2023-03-23T05:27:28;2.05;;;1.85;;
39970;SDS011;35425;51.142;17.178;2023-03-23T05:30:02;2.35;;;2.08;;
39970;SDS011;35425;51.142;17.178;2023-03-23T05:32:28;2.90;;;2.40;;
39970;SDS011;35425;51.142;17.178;2023-03-23T05:34:57;2.15;;;1.80;;
39970;SDS011;35425;51.142;17.178;2023-03-23T05:37:23;1.90;;;1.70;;
39970;SDS011;35425;51.142;17.178;2023-03-23T05:39:49;2.10;;;1.85;;
39970;SDS011;35425;51.142;17.178;2023-03-23T05:42:21;1.85;;;1.75;;
39970;SDS011;35425;51.142;17.178;2023-03-23T05:44:48;2.28;;;1.83;;
39970;SDS011;35425;51.142;17.178;2023-03-23T05:47:13;2.03;;;1.83;;
39970;SDS011;35425;51.142;17.178;2023-03-23T05:49:39;1.98;;;1.75;;
39970;SDS011;35425;51.142;17.178;2023-03-23T05:52:05;2.13;;;1.92;;
39970;SDS011;35425;51.142;17.178;2023-03-23T05:54:30;1.73;;;1.58;;
39970;SDS011;35425;51.142;17.178;2023-03-23T05:56:56;1.67;;;1.58;;
39970;SDS011;35425;51.142;17.178;2023-03-23T05:59:22;1.98;;;1.40;;
39970;SDS011;35425;51.142;17.178;2023-03-23T06:01:48;1.90;;;1.70;;
39970;SDS011;35425;51.142;17.178;2023-03-23T06:04:13;1.38;;;1.27;;
39970;SDS011;35425;51.142;17.178;2023-03-23T06:06:39;1.77;;;1.50;;
39970;SDS011;35425;51.142;17.178;2023-03-23T06:09:06;1.70;;;1.58;;
39970;SDS011;35425;51.142;17.178;2023-03-23T06:11:32;1.75;;;1.60;;
39970;SDS011;35425;51.142;17.178;2023-03-23T06:13:58;1.63;;;1.45;;
39970;SDS011;35425;51.142;17.178;2023-03-23T06:16:24;1.70;;;1.50;;
39970;SDS011;35425;51.142;17.178;2023-03-23T06:18:50;1.70;;;1.58;;
39970;SDS011;35425;51.142;17.178;2023-03-23T06:21:16;2.22;;;1.35;;
39970;SDS011;35425;51.142;17.178;2023-03-23T06:23:44;1.40;;;1.27;;
39970;SDS011;35425;51.142;17.178;2023-03-23T06:26:10;2.42;;;1.40;;
39970;SDS011;35425;51.142;17.178;2023-03-23T06:28:37;1.55;;;1.40;;
39970;SDS011;35425;51.142;17.178;2023-03-23T06:31:04;1.90;;;1.45;;
39970;SDS011;35425;51.142;17.178;2023-03-23T06:33:32;1.92;;;1.60;;
39970;SDS011;35425;51.142;17.178;2023-03-23T06:35:59;1.40;;;1.17;;
39970;SDS011;35425;51.142;17.178;2023-03-23T06:38:25;1.95;;;1.30;;
39970;SDS011;35425;51.142;17.178;2023-03-23T06:40:52;2.50;;;1.60;;
39970;SDS011;35425;51.142;17.178;2023-03-23T06:43:17;1.55;;;1.30;;
39970;SDS011;35425;51.142;17.178;2023-03-23T06:45:43;1.42;;;1.33;;
39970;SDS011;35425;51.142;17.178;2023-03-23T06:48:09;1.42;;;1.23;;
39970;SDS011;35425;51.142;17.178;2023-03-23T06:50:34;1.40;;;1.30;;
39970;SDS011;35425;51.142;17.178;2023-03-23T06:53:00;1.65;;;1.38;;
39970;SDS011;35425;51.142;17.178;2023-03-23T06:55:26;1.60;;;1.30;;
39970;SDS011;35425;51.142;17.178;2023-03-23T06:57:51;2.45;;;1.20;;
39970;SDS011;35425;51.142;17.178;2023-03-23T07:00:17;1.50;;;1.25;;
39970;SDS011;35425;51.142;17.178;2023-03-23T07:02:43;2.47;;;1.35;;
39970;SDS011;35425;51.142;17.178;2023-03-23T07:05:10;1.67;;;1.35;;
39970;SDS011;35425;51.142;17.178;2023-03-23T07:07:40;1.30;;;1.00;;
39970;SDS011;35425;51.142;17.178;2023-03-23T07:10:07;1.27;;;1.10;;
39970;SDS011;35425;51.142;17.178;2023-03-23T07:12:34;1.63;;;1.25;;
39970;SDS011;35425;51.142;17.178;2023-03-23T07:15:04;1.20;;;1.10;;
39970;SDS011;35425;51.142;17.178;2023-03-23T07:17:30;1.30;;;1.00;;
39970;SDS011;35425;51.142;17.178;2023-03-23T07:19:55;1.45;;;1.33;;
39970;SDS011;35425;51.142;17.178;2023-03-23T07:22:21;1.70;;;1.10;;
39970;SDS011;35425;51.142;17.178;2023-03-23T07:24:46;1.17;;;0.95;;
39970;SDS011;35425;51.142;17.178;2023-03-23T07:27:12;1.35;;;1.00;;
39970;SDS011;35425;51.142;17.178;2023-03-23T07:29:39;1.17;;;1.00;;
39970;SDS011;35425;51.142;17.178;2023-03-23T07:32:05;1.13;;;0.90;;
39970;SDS011;35425;51.142;17.178;2023-03-23T07:34:31;1.48;;;1.30;;
39970;SDS011;35425;51.142;17.178;2023-03-23T07:36:57;1.10;;;1.00;;
39970;SDS011;35425;51.142;17.178;2023-03-23T07:39:23;1.40;;;0.77;;
39970;SDS011;35425;51.142;17.178;2023-03-23T07:41:50;1.40;;;1.08;;
39970;SDS011;35425;51.142;17.178;2023-03-23T07:44:15;1.08;;;0.80;;
39970;SDS011;35425;51.142;17.178;2023-03-23T07:46:41;4.15;;;2.20;;
39970;SDS011;35425;51.142;17.178;2023-03-23T07:49:08;1.35;;;0.80;;
39970;SDS011;35425;51.142;17.178;2023-03-23T07:51:34;2.08;;;1.30;;
39970;SDS011;35425;51.142;17.178;2023-03-23T07:54:00;1.10;;;1.00;;
39970;SDS011;35425;51.142;17.178;2023-03-23T07:56:28;2.20;;;1.10;;
39970;SDS011;35425;51.142;17.178;2023-03-23T07:58:54;1.17;;;0.90;;
39970;SDS011;35425;51.142;17.178;2023-03-23T08:01:20;1.55;;;1.20;;
39970;SDS011;35425;51.142;17.178;2023-03-23T08:03:45;1.65;;;1.50;;
39970;SDS011;35425;51.142;17.178;2023-03-23T08:06:12;1.98;;;0.90;;
39970;SDS011;35425;51.142;17.178;2023-03-23T08:08:37;1.45;;;1.20;;
39970;SDS011;35425;51.142;17.178;2023-03-23T08:11:05;0.90;;;0.90;;
39970;SDS011;35425;51.142;17.178;2023-03-23T08:13:31;2.20;;;1.30;;
39970;SDS011;35425;51.142;17.178;2023-03-23T08:15:58;1.30;;;1.13;;
39970;SDS011;35425;51.142;17.178;2023-03-23T08:18:24;1.20;;;1.00;;
39970;SDS011;35425;51.142;17.178;2023-03-23T08:20:50;1.35;;;1.13;;
39970;SDS011;35425;51.142;17.178;2023-03-23T08:23:16;1.13;;;1.00;;
39970;SDS011;35425;51.142;17.178;2023-03-23T08:25:42;1.50;;;1.40;;
39970;SDS011;35425;51.142;17.178;2023-03-23T08:28:08;1.63;;;1.25;;
39970;SDS011;35425;51.142;17.178;2023-03-23T08:30:34;1.20;;;1.10;;
39970;SDS011;35425;51.142;17.178;2023-03-23T08:33:01;1.20;;;1.10;;
39970;SDS011;35425;51.142;17.178;2023-03-23T08:35:27;1.42;;;1.10;;
39970;SDS011;35425;51.142;17.178;2023-03-23T08:37:53;2.03;;;1.15;;
39970;SDS011;35425;51.142;17.178;2023-03-23T08:40:20;1.73;;;1.20;;
39970;SDS011;35425;51.142;17.178;2023-03-23T08:42:47;2.03;;;1.27;;
39970;SDS011;35425;51.142;17.178;2023-03-23T08:45:15;1.60;;;1.40;;
39970;SDS011;35425;51.142;17.178;2023-03-23T08:47:41;1.80;;;1.40;;
39970;SDS011;35425;51.142;17.178;2023-03-23T08:50:13;1.73;;;1.33;;
39970;SDS011;35425;51.142;17.178;2023-03-23T08:52:39;1.95;;;1.70;;
39970;SDS011;35425;51.142;17.178;2023-03-23T08:55:05;1.50;;;1.40;;
39970;SDS011;35425;51.142;17.178;2023-03-23T08:57:34;1.83;;;1.60;;
39970;SDS011;35425;51.142;17.178;2023-03-23T09:00:02;1.60;;;1.50;;
39970;SDS011;35425;51.142;17.178;2023-03-23T09:02:38;1.40;;;1.20;;
39970;SDS011;35425;51.142;17.178;2023-03-23T09:05:04;1.50;;;1.40;;
39970;SDS011;35425;51.142;17.178;2023-03-23T09:07:30;1.65;;;1.55;;
39970;SDS011;35425;51.142;17.178;2023-03-23T09:09:55;1.92;;;1.52;;
39970;SDS011;35425;51.142;17.178;2023-03-23T09:12:21;2.50;;;1.30;;
39970;SDS011;35425;51.142;17.178;2023-03-23T09:14:47;1.77;;;1.52;;
39970;SDS011;35425;51.142;17.178;2023-03-23T09:17:13;1.63;;;1.50;;
39970;SDS011;35425;51.142;17.178;2023-03-23T09:19:38;1.70;;;1.35;;
39970;SDS011;35425;51.142;17.178;2023-03-23T09:22:04;1.83;;;1.60;;
39970;SDS011;35425;51.142;17.178;2023-03-23T09:24:30;2.03;;;1.52;;
39970;SDS011;35425;51.142;17.178;2023-03-23T09:26:55;1.30;;;1.17;;
39970;SDS011;35425;51.142;17.178;2023-03-23T09:29:21;1.38;;;1.27;;
39970;SDS011;35425;51.142;17.178;2023-03-23T09:31:46;1.67;;;1.50;;
39970;SDS011;35425;51.142;17.178;2023-03-23T09:34:12;1.70;;;1.60;;
39970;SDS011;35425;51.142;17.178;2023-03-23T09:36:38;1.50;;;1.25;;
39970;SDS011;35425;51.142;17.178;2023-03-23T09:39:07;2.47;;;1.65;;
39970;SDS011;35425;51.142;17.178;2023-03-23T09:44:27;1.55;;;1.40;;
39970;SDS011;35425;51.142;17.178;2023-03-23T09:49:26;1.92;;;1.40;;
39970;SDS011;35425;51.142;17.178;2023-03-23T09:52:08;1.48;;;1.23;;
39970;SDS011;35425;51.142;17.178;2023-03-23T09:54:53;1.40;;;1.27;;
39970;SDS011;35425;51.142;17.178;2023-03-23T09:57:28;1.10;;;1.00;;
39970;SDS011;35425;51.142;17.178;2023-03-23T10:00:04;1.65;;;1.17;;
39970;SDS011;35425;51.142;17.178;2023-03-23T10:05:06;1.42;;;1.20;;
39970;SDS011;35425;51.142;17.178;2023-03-23T10:07:37;1.65;;;0.90;;
39970;SDS011;35425;51.142;17.178;2023-03-23T10:10:04;1.20;;;1.10;;
39970;SDS011;35425;51.142;17.178;2023-03-23T10:15:35;1.38;;;1.27;;
39970;SDS011;35425;51.142;17.178;2023-03-23T10:17:59;1.83;;;1.20;;
39970;SDS011;35425;51.142;17.178;2023-03-23T10:25:58;1.40;;;1.02;;
39970;SDS011;35425;51.142;17.178;2023-03-23T10:28:38;1.30;;;1.10;;
39970;SDS011;35425;51.142;17.178;2023-03-23T10:31:05;2.05;;;1.33;;
39970;SDS011;35425;51.142;17.178;2023-03-23T10:33:47;0.98;;;0.80;;
39970;SDS011;35425;51.142;17.178;2023-03-23T10:36:19;0.85;;;0.80;;
39970;SDS011;35425;51.142;17.178;2023-03-23T10:38:55;1.48;;;0.88;;
39970;SDS011;35425;51.142;17.178;2023-03-23T10:41:23;1.00;;;0.88;;
39970;SDS011;35425;51.142;17.178;2023-03-23T10:43:48;1.35;;;0.93;;
39970;SDS011;35425;51.142;17.178;2023-03-23T10:46:27;1.23;;;0.80;;
39970;SDS011;35425;51.142;17.178;2023-03-23T10:48:54;0.88;;;0.85;;
39970;SDS011;35425;51.142;17.178;2023-03-23T10:51:24;1.17;;;0.73;;
39970;SDS011;35425;51.142;17.178;2023-03-23T10:53:55;1.13;;;0.80;;
39970;SDS011;35425;51.142;17.178;2023-03-23T10:56:26;1.00;;;0.80;;
39970;SDS011;35425;51.142;17.178;2023-03-23T10:58:53;1.23;;;0.70;;
39970;SDS011;35425;51.142;17.178;2023-03-23T11:01:19;1.23;;;0.75;;
39970;SDS011;35425;51.142;17.178;2023-03-23T11:03:46;1.02;;;0.80;;
39970;SDS011;35425;51.142;17.178;2023-03-23T11:06:24;1.25;;;0.73;;
39970;SDS011;35425;51.142;17.178;2023-03-23T11:08:53;1.15;;;0.60;;
39970;SDS011;35425;51.142;17.178;2023-03-23T11:11:20;1.45;;;0.88;;
39970;SDS011;35425;51.142;17.178;2023-03-23T11:13:55;1.27;;;0.70;;
39970;SDS011;35425;51.142;17.178;2023-03-23T11:16:22;0.73;;;0.73;;
39970;SDS011;35425;51.142;17.178;2023-03-23T11:18:48;1.27;;;0.60;;
39970;SDS011;35425;51.142;17.178;2023-03-23T11:21:14;1.48;;;0.57;;
39970;SDS011;35425;51.142;17.178;2023-03-23T11:23:41;0.75;;;0.43;;
39970;SDS011;35425;51.142;17.178;2023-03-23T11:28:37;0.82;;;0.60;;
39970;SDS011;35425;51.142;17.178;2023-03-23T11:31:04;0.80;;;0.63;;
39970;SDS011;35425;51.142;17.178;2023-03-23T11:33:35;1.23;;;0.68;;
39970;SDS011;35425;51.142;17.178;2023-03-23T11:36:02;0.80;;;0.60;;
39970;SDS011;35425;51.142;17.178;2023-03-23T11:38:27;0.50;;;0.50;;
39970;SDS011;35425;51.142;17.178;2023-03-23T11:40:53;1.42;;;0.60;;
39970;SDS011;35425;51.142;17.178;2023-03-23T11:43:20;1.05;;;0.65;;
39970;SDS011;35425;51.142;17.178;2023-03-23T11:45:54;1.08;;;0.50;;
39970;SDS011;35425;51.142;17.178;2023-03-23T11:48:31;0.77;;;0.47;;
39970;SDS011;35425;51.142;17.178;2023-03-23T11:51:08;0.60;;;0.50;;
39970;SDS011;35425;51.142;17.178;2023-03-23T11:58:53;0.80;;;0.50;;
39970;SDS011;35425;51.142;17.178;2023-03-23T12:01:21;0.65;;;0.50;;
39970;SDS011;35425;51.142;17.178;2023-03-23T12:06:34;1.02;;;0.50;;
39970;SDS011;35425;51.142;17.178;2023-03-23T12:09:27;0.73;;;0.43;;
39970;SDS011;35425;51.142;17.178;2023-03-23T12:14:38;1.45;;;0.50;;
39970;SDS011;35425;51.142;17.178;2023-03-23T12:17:17;0.65;;;0.65;;
39970;SDS011;35425;51.142;17.178;2023-03-23T12:20:03;0.43;;;0.40;;
39970;SDS011;35425;51.142;17.178;2023-03-23T12:37:54;0.77;;;0.50;;
39970;SDS011;35425;51.142;17.178;2023-03-23T12:44:33;0.95;;;0.60;;
39970;SDS011;35425;51.142;17.178;2023-03-23T12:46:33;0.68;;;0.40;;
39970;SDS011;35425;51.142;17.178;2023-03-23T12:49:19;1.02;;;0.40;;
39970;SDS011;35425;51.142;17.178;2023-03-23T12:51:51;0.43;;;0.40;;
39970;SDS011;35425;51.142;17.178;2023-03-23T13:02:11;0.52;;;0.52;;
39970;SDS011;35425;51.142;17.178;2023-03-23T13:04:40;0.70;;;0.50;;
39970;SDS011;35425;51.142;17.178;2023-03-23T13:07:09;0.43;;;0.40;;
39970;SDS011;35425;51.142;17.178;2023-03-23T13:09:37;0.85;;;0.50;;
39970;SDS011;35425;51.142;17.178;2023-03-23T13:12:05;0.60;;;0.32;;
39970;SDS011;35425;51.142;17.178;2023-03-23T13:14:47;0.57;;;0.40;;
39970;SDS011;35425;51.142;17.178;2023-03-23T13:22:47;0.60;;;0.40;;
39970;SDS011;35425;51.142;17.178;2023-03-23T13:28:03;0.70;;;0.47;;
39970;SDS011;35425;51.142;17.178;2023-03-23T13:30:30;0.52;;;0.40;;
39970;SDS011;35425;51.142;17.178;2023-03-23T13:33:05;0.70;;;0.50;;
39970;SDS011;35425;51.142;17.178;2023-03-23T13:35:33;0.57;;;0.50;;
39970;SDS011;35425;51.142;17.178;2023-03-23T13:37:59;0.50;;;0.40;;
39970;SDS011;35425;51.142;17.178;2023-03-23T13:40:29;0.55;;;0.30;;
39970;SDS011;35425;51.142;17.178;2023-03-23T13:42:56;0.77;;;0.43;;
39970;SDS011;35425;51.142;17.178;2023-03-23T13:53:14;0.68;;;0.50;;
39970;SDS011;35425;51.142;17.178;2023-03-23T13:55:41;1.20;;;0.45;;
39970;SDS011;35425;51.142;17.178;2023-03-23T14:03:00;0.70;;;0.50;;
39970;SDS011;35425;51.142;17.178;2023-03-23T14:05:36;0.75;;;0.40;;
39970;SDS011;35425;51.142;17.178;2023-03-23T14:08:10;0.57;;;0.50;;
39970;SDS011;35425;51.142;17.178;2023-03-23T14:10:40;0.90;;;0.47;;
39970;SDS011;35425;51.142;17.178;2023-03-23T14:13:50;0.47;;;0.47;;
39970;SDS011;35425;51.142;17.178;2023-03-23T14:16:01;0.95;;;0.60;;
39970;SDS011;35425;51.142;17.178;2023-03-23T14:18:37;0.75;;;0.47;;
39970;SDS011;35425;51.142;17.178;2023-03-23T14:21:02;0.82;;;0.50;;
39970;SDS011;35425;51.142;17.178;2023-03-23T14:23:30;0.52;;;0.43;;
39970;SDS011;35425;51.142;17.178;2023-03-23T14:25:57;0.90;;;0.50;;
39970;SDS011;35425;51.142;17.178;2023-03-23T14:28:30;1.25;;;0.50;;
39970;SDS011;35425;51.142;17.178;2023-03-23T14:30:58;0.60;;;0.50;;
39970;SDS011;35425;51.142;17.178;2023-03-23T14:33:24;0.95;;;0.40;;
39970;SDS011;35425;51.142;17.178;2023-03-23T14:35:50;0.98;;;0.45;;
39970;SDS011;35425;51.142;17.178;2023-03-23T14:38:20;0.70;;;0.50;;
39970;SDS011;35425;51.142;17.178;2023-03-23T14:40:48;1.20;;;0.60;;
39970;SDS011;35425;51.142;17.178;2023-03-23T14:43:15;0.98;;;0.50;;
39970;SDS011;35425;51.142;17.178;2023-03-23T14:45:42;0.80;;;0.55;;
39970;SDS011;35425;51.142;17.178;2023-03-23T14:48:08;1.10;;;0.50;;
39970;SDS011;35425;51.142;17.178;2023-03-23T14:53:11;1.38;;;0.50;;
39970;SDS011;35425;51.142;17.178;2023-03-23T14:55:41;0.60;;;0.50;;
39970;SDS011;35425;51.142;17.178;2023-03-23T14:58:07;0.60;;;0.40;;
39970;SDS011;35425;51.142;17.178;2023-03-23T15:00:39;1.80;;;0.57;;
39970;SDS011;35425;51.142;17.178;2023-03-23T15:03:06;0.80;;;0.50;;
39970;SDS011;35425;51.142;17.178;2023-03-23T15:05:35;0.90;;;0.65;;
39970;SDS011;35425;51.142;17.178;2023-03-23T15:08:04;0.77;;;0.50;;
39970;SDS011;35425;51.142;17.178;2023-03-23T15:10:31;1.10;;;0.70;;
39970;SDS011;35425;51.142;17.178;2023-03-23T15:12:56;0.98;;;0.57;;
39970;SDS011;35425;51.142;17.178;2023-03-23T15:15:26;0.82;;;0.50;;
39970;SDS011;35425;51.142;17.178;2023-03-23T15:17:53;0.88;;;0.82;;
39970;SDS011;35425;51.142;17.178;2023-03-23T15:22:45;1.00;;;0.68;;
39970;SDS011;35425;51.142;17.178;2023-03-23T15:25:16;0.85;;;0.73;;
39970;SDS011;35425;51.142;17.178;2023-03-23T15:27:43;0.60;;;0.60;;
39970;SDS011;35425;51.142;17.178;2023-03-23T15:32:41;1.08;;;0.75;;
39970;SDS011;35425;51.142;17.178;2023-03-23T15:35:25;1.23;;;0.73;;
39970;SDS011;35425;51.142;17.178;2023-03-23T15:37:52;1.00;;;0.70;;
39970;SDS011;35425;51.142;17.178;2023-03-23T15:40:21;0.80;;;0.70;;
39970;SDS011;35425;51.142;17.178;2023-03-23T15:42:47;0.85;;;0.70;;
39970;SDS011;35425;51.142;17.178;2023-03-23T15:52:35;1.30;;;0.90;;
39970;SDS011;35425;51.142;17.178;2023-03-23T15:55:01;1.35;;;0.73;;
39970;SDS011;35425;51.142;17.178;2023-03-23T15:57:26;1.40;;;1.08;;
39970;SDS011;35425;51.142;17.178;2023-03-23T15:59:55;1.35;;;0.90;;
39970;SDS011;35425;51.142;17.178;2023-03-23T16:02:22;1.35;;;1.00;;
39970;SDS011;35425;51.142;17.178;2023-03-23T16:04:50;1.65;;;1.00;;
39970;SDS011;35425;51.142;17.178;2023-03-23T16:07:19;2.13;;;1.30;;
39970;SDS011;35425;51.142;17.178;2023-03-23T16:09:47;1.50;;;1.02;;
39970;SDS011;35425;51.142;17.178;2023-03-23T16:12:13;1.67;;;1.17;;
39970;SDS011;35425;51.142;17.178;2023-03-23T16:14:40;1.65;;;1.23;;
39970;SDS011;35425;51.142;17.178;2023-03-23T16:17:18;3.10;;;1.40;;
39970;SDS011;35425;51.142;17.178;2023-03-23T16:19:45;2.47;;;1.60;;
39970;SDS011;35425;51.142;17.178;2023-03-23T16:22:11;1.90;;;1.20;;
39970;SDS011;35425;51.142;17.178;2023-03-23T16:24:38;2.70;;;1.40;;
39970;SDS011;35425;51.142;17.178;2023-03-23T16:27:04;2.58;;;1.35;;